メインページ
METAR-TAF:

METAR-TAF

空港 :

North Central State Airport

ポータケット, ロードアイランド州, アメリカ合衆国

緯度: 41-55N, 経度: 071-30W, 海抜: 134m

現時点の気象観測

当レポートは58分前の23:56(UTC)に作成
西/北西の風 4kt
気温 19°C
湿度 83%
気圧 1016 hPa
視程: 16.1km
高度5500ftの雲はほとんどない

METAR: KSFZ 232356Z AUTO 30004KT 10SM FEW055 19/16 A3000 RMK AO2 SLP103 T01890156 10244 20183 53004

時間: 20:54 (00:54 UTC)


TAF: 見つかりません

4,000以上の空港の気象観測と天気予報(METAR報とTAF報)

利用可能な観測所は地図上に黄色い丸と赤い丸で示す。

丸の上にカーソルを重ねると観測所名を参照できる。

次にクリックすると気象観測と天気予報を参照できる。

マップの切り替え:黒色「×」印の緑ボタンをクリックして拡大、「-」印の緑ボタンをクリックして縮小、緑色の三角印をクリックして隣りの地図に切り替え


METAR-TAF: